Time;durP1;ratioP1;P1;durP2;ratioP2;P2;SDS_P1;SDS_P2;PMS_P1;PMS_P2;Temp;Humidity;BMP_temperature;BMP_pressure;BME280_temperature;BME280_humidity;BME280_pressure;Samples;Min_cycle;Max_cycle;Signal;HPM_P1;HPM_P2
2022/06/01 00:01:22;;;;;;;5.05;4.10;;;12.30;99.90;;;;;;5264662;28;20086;-73
2022/06/01 00:03:55;;;;;;;5.63;4.13;;;12.20;99.90;;;;;;5271493;28;20055;-74
2022/06/01 00:06:27;;;;;;;6.75;4.22;;;12.10;99.90;;;;;;5252929;28;20099;-74
2022/06/01 00:09:00;;;;;;;5.88;3.83;;;11.90;99.90;;;;;;5247530;28;20048;-76
2022/06/01 00:11:33;;;;;;;5.38;3.67;;;11.90;99.90;;;;;;5272663;28;20047;-74
2022/06/01 00:14:07;;;;;;;4.80;3.13;;;12.00;99.90;;;;;;5244544;28;20048;-74
2022/06/01 00:16:39;;;;;;;5.13;3.58;;;11.90;99.90;;;;;;5264935;28;20048;-74
2022/06/01 00:19:12;;;;;;;6.30;3.95;;;11.90;99.90;;;;;;5266151;28;20044;-74
2022/06/01 00:24:38;;;;;;;6.10;3.70;;;11.90;99.90;;;;;;5249418;28;20343;-74
2022/06/01 00:27:12;;;;;;;5.97;3.22;;;12.00;99.90;;;;;;5253579;28;20048;-74
2022/06/01 00:29:45;;;;;;;5.45;4.20;;;12.00;99.90;;;;;;5235463;28;20066;-74
2022/06/01 00:32:18;;;;;;;3.60;3.08;;;12.00;99.90;;;;;;5270097;28;20490;-74
2022/06/01 00:34:50;;;;;;;5.45;3.13;;;11.90;99.90;;;;;;5269415;28;20475;-75
2022/06/01 00:37:23;;;;;;;4.30;3.30;;;12.00;99.90;;;;;;5253922;28;20051;-74
2022/06/01 00:39:56;;;;;;;3.60;3.30;;;11.90;99.90;;;;;;5268234;28;20036;-74
2022/06/01 00:42:30;;;;;;;5.53;3.10;;;11.90;99.90;;;;;;5266226;28;20066;-74
2022/06/01 00:45:05;;;;;;;4.20;3.22;;;11.90;99.90;;;;;;5266661;28;20725;-74
2022/06/01 00:47:38;;;;;;;3.72;2.90;;;11.90;99.90;;;;;;5270021;28;20044;-74
2022/06/01 00:50:17;;;;;;;4.45;3.53;;;11.90;99.90;;;;;;5271281;28;20044;-74
2022/06/01 00:52:55;;;;;;;3.78;3.08;;;11.90;99.90;;;;;;5274320;28;20090;-74
2022/06/01 00:55:38;;;;;;;3.72;3.10;;;11.80;99.90;;;;;;5265656;28;20676;-74
2022/06/01 00:58:14;;;;;;;6.95;3.50;;;11.80;99.90;;;;;;5268823;28;20383;-74
2022/06/01 01:00:49;;;;;;;4.75;3.50;;;11.80;99.90;;;;;;5246446;28;20047;-74
2022/06/01 01:03:24;;;;;;;6.90;2.88;;;11.80;99.90;;;;;;5249031;28;20499;-74
2022/06/01 01:06:11;;;;;;;3.22;2.88;;;11.80;99.90;;;;;;5250709;28;20071;-74
2022/06/01 01:08:48;;;;;;;7.85;3.00;;;11.80;99.90;;;;;;5265291;28;20043;-74
2022/06/01 01:11:29;;;;;;;2.90;2.58;;;11.70;99.90;;;;;;5264593;28;20059;-74
2022/06/01 01:14:06;;;;;;;3.92;2.45;;;11.80;99.90;;;;;;5223817;28;20067;-74
2022/06/01 01:16:39;;;;;;;3.97;3.58;;;11.80;99.90;;;;;;5245191;28;20052;-74
2022/06/01 01:19:28;;;;;;;3.45;2.85;;;11.80;99.90;;;;;;5246037;28;20487;-74
2022/06/01 01:22:37;;;;;;;3.38;2.78;;;11.80;99.90;;;;;;5251061;28;20578;-74
2022/06/01 01:25:10;;;;;;;3.28;2.50;;;11.80;99.90;;;;;;5252700;28;20043;-74
2022/06/01 01:27:45;;;;;;;3.10;2.80;;;11.80;99.90;;;;;;5247981;28;20051;-74
2022/06/01 01:30:30;;;;;;;4.35;2.78;;;11.80;99.90;;;;;;5251164;28;20051;-74
2022/06/01 01:33:03;;;;;;;4.47;2.53;;;11.80;99.90;;;;;;5265446;28;20055;-74
2022/06/01 01:35:36;;;;;;;3.35;2.90;;;11.80;99.90;;;;;;5270172;28;20047;-74
2022/06/01 01:38:15;;;;;;;4.60;2.70;;;11.80;99.90;;;;;;5262911;28;20059;-74
2022/06/01 01:41:21;;;;;;;4.55;2.92;;;11.90;99.90;;;;;;5261945;28;20518;-74
2022/06/01 01:44:17;;;;;;;3.47;2.60;;;11.80;99.90;;;;;;5235249;28;20066;-74
2022/06/01 01:46:50;;;;;;;6.47;3.03;;;11.80;99.90;;;;;;5247173;28;20074;-74
2022/06/01 01:49:30;;;;;;;4.18;3.15;;;11.70;99.90;;;;;;5266670;28;20052;-74
2022/06/01 01:52:06;;;;;;;3.20;2.90;;;11.80;99.90;;;;;;5252738;28;20028;-74
2022/06/01 01:54:56;;;;;;;3.25;2.92;;;11.80;99.90;;;;;;5272970;28;20611;-74
2022/06/01 01:58:14;;;;;;;3.50;3.20;;;11.90;99.90;;;;;;5252940;28;21599;-74
2022/06/01 02:00:52;;;;;;;3.88;3.28;;;11.80;99.90;;;;;;5254123;28;20044;-75
2022/06/01 02:03:37;;;;;;;3.25;2.95;;;11.90;99.90;;;;;;5257766;28;20414;-74
2022/06/01 02:06:54;;;;;;;3.47;2.83;;;11.90;99.90;;;;;;5266131;28;20047;-75
2022/06/01 02:12:40;;;;;;;2.80;2.60;;;12.00;99.90;;;;;;5261364;28;20078;-75
2022/06/01 02:15:22;;;;;;;5.68;3.40;;;12.10;99.90;;;;;;5242372;28;20043;-75
2022/06/01 02:17:59;;;;;;;2.70;2.45;;;12.10;99.90;;;;;;5269578;28;20419;-75
2022/06/01 02:20:34;;;;;;;3.42;3.08;;;12.10;99.90;;;;;;5271996;28;20058;-75
2022/06/01 02:23:11;;;;;;;4.72;2.78;;;12.10;99.90;;;;;;5232269;28;20039;-75
2022/06/01 02:25:48;;;;;;;4.97;2.65;;;12.00;99.90;;;;;;5263844;28;20059;-75
2022/06/01 02:28:20;;;;;;;8.35;2.83;;;12.00;99.90;;;;;;5242786;28;20059;-75
2022/06/01 02:30:55;;;;;;;5.40;2.80;;;12.00;99.90;;;;;;5263134;28;20698;-75
2022/06/01 02:33:33;;;;;;;5.40;3.30;;;12.00;99.90;;;;;;5256231;28;21382;-74
2022/06/01 02:36:08;;;;;;;6.30;3.28;;;12.00;99.90;;;;;;5244011;28;20087;-74
2022/06/01 02:38:44;;;;;;;3.85;2.80;;;12.00;99.90;;;;;;5263240;28;20051;-75
2022/06/01 02:44:08;;;;;;;3.75;2.58;;;11.90;99.90;;;;;;5264936;28;20891;-74
2022/06/01 02:46:40;;;;;;;6.93;3.05;;;11.90;99.90;;;;;;5263883;28;20845;-75
2022/06/01 02:49:13;;;;;;;3.13;2.42;;;11.80;99.90;;;;;;5264309;28;20051;-74
2022/06/01 02:51:46;;;;;;;6.10;2.83;;;11.70;99.90;;;;;;5260405;28;20040;-74
2022/06/01 02:54:19;;;;;;;;;;;11.70;99.90;;;;;;5255903;28;20075;-75
2022/06/01 02:56:51;;;;;;;6.32;2.60;;;11.50;99.90;;;;;;5262262;28;19923;-74
2022/06/01 02:59:24;;;;;;;3.83;2.40;;;11.50;99.90;;;;;;5259818;28;20047;-74
2022/06/01 03:01:56;;;;;;;3.88;3.20;;;11.40;99.90;;;;;;5225713;28;20995;-74
2022/06/01 03:04:29;;;;;;;4.03;3.00;;;11.40;99.90;;;;;;5268091;28;20499;-75
2022/06/01 03:07:05;;;;;;;6.15;2.63;;;11.30;99.90;;;;;;5265205;28;20059;-74
2022/06/01 03:09:40;;;;;;;2.55;2.20;;;11.30;99.90;;;;;;5245664;28;20236;-74
2022/06/01 03:12:12;;;;;;;3.58;2.67;;;11.30;99.90;;;;;;5251336;28;20617;-75
2022/06/01 03:14:45;;;;;;;4.30;2.87;;;11.30;99.90;;;;;;5260241;28;20050;-74
2022/06/01 03:17:18;;;;;;;5.13;3.30;;;11.30;99.90;;;;;;5230821;28;21245;-74
2022/06/01 03:19:50;;;;;;;4.00;3.17;;;11.40;99.90;;;;;;5268471;28;20051;-74
2022/06/01 03:22:23;;;;;;;6.57;4.20;;;11.40;99.90;;;;;;5242381;28;20058;-74
2022/06/01 03:24:55;;;;;;;5.93;4.23;;;11.50;99.90;;;;;;5254307;28;20509;-74
2022/06/01 03:27:28;;;;;;;5.70;4.45;;;11.50;99.90;;;;;;5238177;28;20058;-74
2022/06/01 03:30:01;;;;;;;7.15;5.05;;;11.50;99.90;;;;;;5239606;28;20044;-74
2022/06/01 03:32:34;;;;;;;6.82;4.35;;;11.60;99.90;;;;;;5238555;28;21729;-74
2022/06/01 03:38:16;;;;;;;6.47;4.65;;;11.60;99.90;;;;;;5153730;28;20060;-73
2022/06/01 03:40:48;;;;;;;5.63;4.30;;;11.70;99.90;;;;;;5147544;28;20406;-73
2022/06/01 03:43:21;;;;;;;4.45;3.75;;;11.60;99.90;;;;;;5158813;28;20300;-73
2022/06/01 03:45:57;;;;;;;6.82;4.55;;;11.70;99.90;;;;;;5153843;28;20784;-73
2022/06/01 03:48:32;;;;;;;6.80;5.07;;;11.70;99.90;;;;;;5132761;28;20061;-73
2022/06/01 03:51:04;;;;;;;19.08;10.68;;;11.80;99.90;;;;;;5155507;28;20054;-73
2022/06/01 03:53:37;;;;;;;18.05;12.18;;;11.80;99.90;;;;;;5117626;28;20068;-73
2022/06/01 03:56:10;;;;;;;13.05;8.30;;;11.80;99.90;;;;;;5142029;28;20046;-73
2022/06/01 03:58:42;;;;;;;10.47;7.83;;;11.80;99.90;;;;;;5136502;28;20050;-73
2022/06/01 04:01:16;;;;;;;8.73;5.32;;;11.80;99.90;;;;;;5143111;28;20061;-74
2022/06/01 04:03:49;;;;;;;7.47;5.60;;;11.80;99.90;;;;;;5122460;28;20050;-74
2022/06/01 04:06:21;;;;;;;8.52;5.68;;;11.80;99.90;;;;;;5152269;28;20592;-74
2022/06/01 04:08:54;;;;;;;7.68;4.50;;;11.80;99.90;;;;;;5152898;28;20057;-73
2022/06/01 04:11:26;;;;;;;10.82;4.75;;;11.80;99.90;;;;;;5151828;28;20188;-72
2022/06/01 04:13:59;;;;;;;5.07;3.78;;;11.80;99.90;;;;;;5151005;28;20461;-71
2022/06/01 04:16:31;;;;;;;6.43;3.70;;;11.90;99.90;;;;;;5147575;28;20050;-72
2022/06/01 04:19:04;;;;;;;3.78;3.47;;;11.90;99.90;;;;;;5138686;28;20080;-72
2022/06/01 04:21:39;;;;;;;7.55;3.97;;;11.90;99.90;;;;;;5152429;28;20288;-72
2022/06/01 04:24:14;;;;;;;4.38;3.67;;;12.00;99.90;;;;;;5144505;28;20417;-72
2022/06/01 04:26:47;;;;;;;4.63;3.65;;;12.00;99.90;;;;;;5113316;28;20046;-72
2022/06/01 04:29:20;;;;;;;4.75;3.65;;;12.10;99.90;;;;;;5152956;28;20047;-72
2022/06/01 04:32:00;;;;;;;7.25;4.15;;;12.10;99.90;;;;;;5139368;28;20050;-73
2022/06/01 04:34:33;;;;;;;6.32;3.58;;;12.10;99.90;;;;;;5140764;28;20064;-72
2022/06/01 04:37:06;;;;;;;11.05;4.78;;;12.10;99.90;;;;;;5199648;27;20052;-72
2022/06/01 04:39:38;;;;;;;12.20;6.00;;;12.10;99.90;;;;;;5237200;28;20043;-72
2022/06/01 04:42:11;;;;;;;11.63;6.18;;;12.20;99.90;;;;;;5250709;28;20040;-72
2022/06/01 04:44:43;;;;;;;8.20;5.93;;;12.20;99.90;;;;;;5248591;28;20047;-72
2022/06/01 04:47:16;;;;;;;11.15;5.47;;;12.30;99.90;;;;;;5267585;28;20977;-71
2022/06/01 04:49:49;;;;;;;8.02;4.72;;;12.40;99.90;;;;;;5267931;28;20036;-71
2022/06/01 04:52:21;;;;;;;5.60;4.80;;;12.50;99.90;;;;;;5268468;28;20051;-71
2022/06/01 04:54:54;;;;;;;5.25;3.47;;;12.60;99.90;;;;;;5259035;28;20054;-70
2022/06/01 04:57:26;;;;;;;6.03;2.97;;;12.60;99.90;;;;;;5256796;28;20533;-71
2022/06/01 04:59:59;;;;;;;6.13;4.15;;;12.70;99.90;;;;;;5234021;28;20044;-71
2022/06/01 05:02:32;;;;;;;6.20;4.03;;;12.80;99.90;;;;;;5239825;28;20051;-71
2022/06/01 05:05:05;;;;;;;9.27;4.30;;;12.90;99.90;;;;;;5257598;28;20035;-71
2022/06/01 05:07:37;;;;;;;4.38;3.17;;;13.00;99.90;;;;;;5256209;27;20785;-71
2022/06/01 05:10:10;;;;;;;6.40;3.90;;;13.10;99.90;;;;;;5251939;28;20047;-70
2022/06/01 05:12:43;;;;;;;6.05;3.58;;;13.20;99.90;;;;;;5250047;28;20051;-71
2022/06/01 05:15:16;;;;;;;7.88;4.10;;;13.30;99.90;;;;;;5248553;27;20511;-71
2022/06/01 05:17:49;;;;;;;5.45;3.38;;;13.30;99.90;;;;;;5250443;28;20044;-72
2022/06/01 05:20:21;;;;;;;5.38;3.47;;;13.50;99.90;;;;;;5259785;27;20062;-71
2022/06/01 05:22:53;;;;;;;7.38;3.65;;;13.60;99.90;;;;;;5258034;28;20047;-72
2022/06/01 05:25:26;;;;;;;7.47;3.65;;;13.70;99.90;;;;;;5262690;27;20647;-71
2022/06/01 05:27:58;;;;;;;6.68;4.00;;;13.80;99.90;;;;;;5263127;27;20044;-72
2022/06/01 05:30:31;;;;;;;8.20;3.20;;;13.90;99.90;;;;;;5261907;28;20044;-71
2022/06/01 05:33:04;;;;;;;7.00;4.32;;;14.00;99.90;;;;;;5257397;28;20055;-74
2022/06/01 05:35:36;;;;;;;5.97;3.65;;;14.10;99.90;;;;;;5255567;28;20035;-71
2022/06/01 05:38:09;;;;;;;5.35;4.10;;;14.30;99.90;;;;;;5253678;28;20047;-72
2022/06/01 05:40:41;;;;;;;6.32;3.63;;;14.40;99.90;;;;;;5258196;28;21476;-71
2022/06/01 05:43:15;;;;;;;7.38;3.00;;;14.50;99.90;;;;;;5233275;28;20040;-71
2022/06/01 05:45:48;;;;;;;6.88;3.17;;;14.70;99.90;;;;;;5256531;28;20051;-71
2022/06/01 05:48:23;;;;;;;6.80;3.22;;;14.80;99.90;;;;;;5253556;28;20515;-71
2022/06/01 05:51:02;;;;;;;5.95;3.17;;;14.90;99.90;;;;;;5272683;28;20046;-71
2022/06/01 05:53:35;;;;;;;4.05;2.85;;;15.00;99.90;;;;;;5273530;28;20051;-71
2022/06/01 05:56:07;;;;;;;4.03;3.25;;;15.10;99.90;;;;;;5254375;28;20039;-71
2022/06/01 05:58:39;;;;;;;2.85;2.63;;;15.20;99.90;;;;;;5272499;28;20039;-72
2022/06/01 06:01:12;;;;;;;4.25;2.70;;;15.30;99.90;;;;;;5274789;28;20585;-72
2022/06/01 06:03:44;;;;;;;4.88;2.55;;;15.40;99.90;;;;;;5271869;28;20055;-72
2022/06/01 06:06:17;;;;;;;4.13;2.30;;;15.50;99.90;;;;;;5271507;28;20048;-72
2022/06/01 06:08:56;;;;;;;3.70;2.60;;;15.50;99.90;;;;;;5265841;28;20590;-71
2022/06/01 06:11:31;;;;;;;4.00;2.38;;;15.50;99.90;;;;;;5273946;28;20584;-71
2022/06/01 06:14:05;;;;;;;3.80;3.00;;;15.50;99.90;;;;;;5272926;28;20083;-72
2022/06/01 06:16:45;;;;;;;3.47;2.67;;;15.70;99.90;;;;;;5271981;28;20047;-71
2022/06/01 06:19:19;;;;;;;2.90;2.60;;;15.80;99.90;;;;;;5234675;28;20055;-71
2022/06/01 06:21:52;;;;;;;4.57;2.65;;;15.90;99.90;;;;;;5271885;28;20506;-71
2022/06/01 06:24:24;;;;;;;9.73;3.08;;;15.90;99.90;;;;;;5271002;28;20047;-70
2022/06/01 06:26:57;;;;;;;6.57;2.90;;;16.00;99.90;;;;;;5272211;28;20052;-71
2022/06/01 06:29:29;;;;;;;4.75;2.72;;;16.10;99.90;;;;;;5272988;28;20052;-71
2022/06/01 06:32:02;;;;;;;6.47;3.08;;;16.20;99.90;;;;;;5271915;28;20610;-70
2022/06/01 06:34:34;;;;;;;4.03;2.90;;;16.30;99.90;;;;;;5264927;28;20407;-72
2022/06/01 06:37:07;;;;;;;3.83;2.92;;;16.30;99.90;;;;;;5247940;28;20379;-70
2022/06/01 06:39:39;;;;;;;3.65;2.63;;;16.40;99.90;;;;;;5263204;28;20055;-70
2022/06/01 06:42:12;;;;;;;3.80;2.90;;;16.50;99.90;;;;;;5264357;28;20043;-70
2022/06/01 06:44:44;;;;;;;6.43;2.95;;;16.50;99.90;;;;;;5267566;28;20047;-70
2022/06/01 06:47:17;;;;;;;3.08;2.60;;;16.60;99.90;;;;;;5273199;28;20613;-71
2022/06/01 06:49:49;;;;;;;3.92;2.72;;;16.80;99.90;;;;;;5267214;28;20055;-71
2022/06/01 06:52:21;;;;;;;3.65;2.80;;;16.80;99.90;;;;;;5265270;28;20450;-70
2022/06/01 06:54:54;;;;;;;4.60;2.67;;;16.90;99.90;;;;;;5267719;28;20604;-71
2022/06/01 06:57:26;;;;;;;3.78;2.47;;;16.90;99.90;;;;;;5252455;28;20050;-72
2022/06/01 06:59:59;;;;;;;3.53;2.67;;;17.00;99.90;;;;;;5271199;28;20052;-70
2022/06/01 07:02:32;;;;;;;6.03;2.80;;;17.20;99.30;;;;;;5270967;28;20054;-70
2022/06/01 07:05:04;;;;;;;3.17;2.88;;;17.20;98.30;;;;;;5273254;28;20039;-70
2022/06/01 07:07:37;;;;;;;3.22;2.30;;;17.30;95.60;;;;;;5272149;28;20385;-70
2022/06/01 07:10:10;;;;;;;3.03;2.70;;;17.30;97.00;;;;;;5272804;28;20035;-70
2022/06/01 07:12:43;;;;;;;2.70;2.38;;;17.40;95.60;;;;;;5272534;28;20499;-70
2022/06/01 07:15:15;;;;;;;4.68;2.30;;;17.50;96.80;;;;;;5270999;28;20039;-70
2022/06/01 07:17:47;;;;;;;3.55;2.30;;;17.60;96.00;;;;;;5253593;28;20058;-71
2022/06/01 07:20:21;;;;;;;5.45;2.80;;;17.60;95.20;;;;;;5270452;28;20058;-70
2022/06/01 07:22:56;;;;;;;4.47;2.45;;;17.70;96.20;;;;;;5253094;28;20050;-71
2022/06/01 07:25:29;;;;;;;3.80;2.50;;;17.80;94.20;;;;;;5261774;28;20054;-70
2022/06/01 07:28:01;;;;;;;3.35;2.28;;;17.80;93.40;;;;;;5234683;28;20040;-70
2022/06/01 07:30:34;;;;;;;3.17;2.70;;;17.80;94.60;;;;;;5244487;28;20051;-71
2022/06/01 07:33:06;;;;;;;7.43;2.73;;;18.00;92.70;;;;;;5246318;28;20499;-70
2022/06/01 07:35:39;;;;;;;4.15;2.75;;;18.00;91.60;;;;;;5263635;28;20059;-70
2022/06/01 07:43:53;;;;;;;4.22;2.88;;;18.40;91.80;;;;;;5267553;28;20059;-70
2022/06/01 07:46:26;;;;;;;6.35;2.85;;;18.40;91.10;;;;;;5272609;28;20032;-70
2022/06/01 07:48:58;;;;;;;4.07;2.40;;;18.50;90.20;;;;;;5271556;28;20051;-72
2022/06/01 07:51:51;;;;;;;8.30;2.60;;;18.50;88.60;;;;;;5252013;28;20036;-70
2022/06/01 07:54:24;;;;;;;5.57;2.93;;;18.40;88.40;;;;;;5254396;28;20055;-71
2022/06/01 07:56:57;;;;;;;8.68;3.15;;;18.60;87.70;;;;;;5271123;28;20044;-70
2022/06/01 07:59:29;;;;;;;4.13;2.80;;;18.70;86.10;;;;;;5271469;28;20055;-70
2022/06/01 08:02:05;;;;;;;4.60;2.72;;;18.80;87.80;;;;;;5272199;28;20051;-71
2022/06/01 08:04:39;;;;;;;9.40;3.13;;;18.90;85.40;;;;;;5254649;28;20052;-71
2022/06/01 08:07:13;;;;;;;4.20;2.60;;;18.90;82.70;;;;;;5270995;28;20763;-70
2022/06/01 08:09:47;;;;;;;3.22;2.72;;;19.00;81.90;;;;;;5264675;28;20044;-70
2022/06/01 08:15:11;;;;;;;7.90;3.03;;;19.30;84.60;;;;;;5269876;28;20054;-71
2022/06/01 08:17:50;;;;;;;3.67;2.80;;;19.40;80.00;;;;;;5270760;28;20491;-70
2022/06/01 08:20:24;;;;;;;9.55;3.17;;;19.40;79.10;;;;;;5269446;28;20419;-71
2022/06/01 08:22:58;;;;;;;6.07;2.92;;;19.50;78.50;;;;;;5272199;28;20039;-70
2022/06/01 08:25:31;;;;;;;6.80;2.80;;;19.60;79.90;;;;;;5268083;28;20051;-70
2022/06/01 08:28:05;;;;;;;3.28;2.88;;;19.70;77.20;;;;;;5270455;28;20040;-72
2022/06/01 08:30:39;;;;;;;3.38;2.80;;;19.80;76.10;;;;;;5272822;28;20039;-70
2022/06/01 08:33:12;;;;;;;6.25;2.50;;;19.80;74.60;;;;;;5257832;28;20567;-71
2022/06/01 08:35:48;;;;;;;5.70;3.00;;;19.80;76.90;;;;;;5224015;28;20757;-71
2022/06/01 08:38:20;;;;;;;6.72;2.75;;;20.10;75.60;;;;;;5275463;28;20058;-71
2022/06/01 08:41:09;;;;;;;7.10;2.90;;;20.10;73.80;;;;;;5272442;28;20043;-71
2022/06/01 08:43:57;;;;;;;4.22;2.38;;;20.10;74.30;;;;;;5273688;28;20503;-71
2022/06/01 08:46:31;;;;;;;10.25;2.53;;;20.30;71.90;;;;;;5177412;28;20411;-71
2022/06/01 08:49:12;;;;;;;3.53;2.45;;;20.30;70.90;;;;;;5271621;28;20040;-71
2022/06/01 08:51:44;;;;;;;5.65;2.67;;;20.10;72.20;;;;;;5273607;28;20042;-70
2022/06/01 08:54:17;;;;;;;6.95;2.63;;;20.30;72.60;;;;;;5274711;28;20050;-71
2022/06/01 08:56:55;;;;;;;5.80;2.67;;;20.40;72.60;;;;;;5273550;28;20055;-70
2022/06/01 08:59:52;;;;;;;5.20;2.50;;;20.30;71.60;;;;;;5273511;28;20055;-72
2022/06/01 09:02:34;;;;;;;5.55;2.88;;;20.00;71.30;;;;;;5273939;28;20052;-71
2022/06/01 09:05:16;;;;;;;6.88;2.55;;;20.00;71.30;;;;;;5272665;28;20040;-70
2022/06/01 09:07:54;;;;;;;4.45;2.20;;;20.00;73.00;;;;;;5273896;28;20072;-69
2022/06/01 09:10:34;;;;;;;5.70;2.70;;;20.30;68.90;;;;;;5243925;28;20059;-71
2022/06/01 09:13:14;;;;;;;2.90;2.33;;;20.30;68.20;;;;;;5273625;28;20048;-71
2022/06/01 09:15:54;;;;;;;4.45;2.30;;;20.40;68.90;;;;;;5274884;28;20052;-72
2022/06/01 09:18:32;;;;;;;7.70;2.30;;;20.40;67.40;;;;;;5269491;28;20491;-69
2022/06/01 09:23:57;;;;;;;2.97;2.40;;;20.30;65.80;;;;;;5249061;28;20683;-73
2022/06/01 09:26:29;;;;;;;5.28;2.35;;;20.40;68.10;;;;;;5271880;28;20514;-72
2022/06/01 09:29:03;;;;;;;5.03;2.60;;;20.50;67.20;;;;;;5261278;28;20043;-71
2022/06/01 09:31:39;;;;;;;4.25;2.50;;;20.60;65.00;;;;;;5256621;27;20039;-71
2022/06/01 09:34:15;;;;;;;2.67;2.10;;;20.70;65.90;;;;;;5260838;27;20418;-72
2022/06/01 09:37:10;;;;;;;2.85;1.98;;;20.80;62.70;;;;;;5235582;28;20475;-71
2022/06/01 09:40:28;;;;;;;3.47;2.30;;;20.90;62.10;;;;;;5242397;28;21858;-71
2022/06/01 09:43:01;;;;;;;4.80;2.33;;;20.90;64.00;;;;;;5228899;28;20062;-71
2022/06/01 09:45:53;;;;;;;4.85;2.22;;;21.20;63.10;;;;;;5241319;27;20044;-71
2022/06/01 09:48:34;;;;;;;3.70;1.73;;;21.40;60.00;;;;;;5234409;22;20040;-74
2022/06/01 09:51:19;;;;;;;4.75;1.98;;;21.40;61.10;;;;;;5242393;28;20051;-73
2022/06/01 09:54:08;;;;;;;4.43;2.20;;;21.40;61.60;;;;;;5210667;28;20047;-73
2022/06/01 09:56:47;;;;;;;3.10;2.13;;;21.60;62.80;;;;;;5245782;28;20052;-73
2022/06/01 10:08:25;;;;;;;5.25;2.35;;;22.20;58.70;;;;;;5231673;28;20040;-71
2022/06/01 10:11:30;;;;;;;6.05;2.10;;;22.40;59.00;;;;;;5222865;28;20049;-71
2022/06/01 10:14:05;;;;;;;4.15;1.92;;;22.60;57.80;;;;;;5231245;28;20058;-71
2022/06/01 10:16:41;;;;;;;3.63;1.80;;;22.60;56.30;;;;;;5207898;22;20048;31
2022/06/01 10:19:20;;;;;;;3.65;2.28;;;22.90;55.90;;;;;;5159627;28;20049;-73
2022/06/01 10:21:55;;;;;;;7.15;2.15;;;23.00;56.70;;;;;;5179495;28;20049;-73
2022/06/01 10:24:41;;;;;;;3.25;2.00;;;23.10;56.50;;;;;;5190634;28;20045;-72
2022/06/01 10:27:16;;;;;;;3.75;2.03;;;23.30;54.10;;;;;;5183976;28;20044;-73
2022/06/01 10:29:58;;;;;;;4.78;2.08;;;23.10;53.00;;;;;;5227290;28;20049;-72
2022/06/01 10:32:40;;;;;;;2.58;2.10;;;22.80;52.50;;;;;;5224088;28;20059;-72
2022/06/01 10:35:25;;;;;;;3.53;2.03;;;22.90;56.20;;;;;;5223970;28;20040;-74
2022/06/01 10:38:14;;;;;;;3.05;2.30;;;23.00;54.80;;;;;;5230696;28;20071;-73
2022/06/01 10:41:28;;;;;;;3.85;2.10;;;22.90;53.90;;;;;;5224721;28;20044;-73
2022/06/01 10:44:21;;;;;;;4.45;2.38;;;22.90;55.20;;;;;;5208676;28;20048;-72
2022/06/01 10:47:02;;;;;;;6.28;2.20;;;22.90;53.90;;;;;;5192496;28;20045;-72
2022/06/01 10:50:05;;;;;;;3.60;2.20;;;22.90;53.40;;;;;;5199994;28;20032;-73
2022/06/01 10:52:46;;;;;;;3.05;2.00;;;22.90;55.80;;;;;;5219215;28;20052;-72
2022/06/01 10:55:25;;;;;;;3.60;2.22;;;23.00;55.30;;;;;;5193361;28;20056;-73
2022/06/01 10:58:00;;;;;;;2.00;1.80;;;23.00;54.60;;;;;;5219262;28;20048;-73
2022/06/01 11:00:46;;;;;;;4.80;2.17;;;22.70;55.20;;;;;;5216257;28;20056;-73
2022/06/01 11:03:28;;;;;;;5.55;2.33;;;22.60;55.80;;;;;;5205045;28;20056;-73
2022/06/01 11:06:29;;;;;;;2.00;1.85;;;22.70;55.80;;;;;;5128313;28;20423;-73
2022/06/01 11:09:17;;;;;;;3.53;1.80;;;22.60;56.20;;;;;;5216373;28;20518;-72
2022/06/01 11:12:02;;;;;;;6.10;2.20;;;23.00;57.80;;;;;;5218641;28;20037;-73
2022/06/01 11:14:58;;;;;;;2.63;1.90;;;23.60;57.10;;;;;;5207573;28;20048;-73
2022/06/01 11:17:40;;;;;;;3.20;2.00;;;24.20;54.80;;;;;;5200373;28;20055;-72
2022/06/01 11:20:20;;;;;;;3.97;2.05;;;23.90;54.90;;;;;;5188117;28;20053;-73
2022/06/01 11:23:24;;;;;;;3.08;2.40;;;23.80;55.20;;;;;;5179977;28;20055;-72
2022/06/01 11:26:16;;;;;;;6.03;2.17;;;23.60;52.70;;;;;;5156623;28;20609;-72
2022/06/01 11:29:00;;;;;;;2.75;1.83;;;23.50;53.90;;;;;;5189353;28;20052;-73
2022/06/01 11:31:35;;;;;;;6.97;2.20;;;23.20;53.60;;;;;;5197180;28;20052;-73
2022/06/01 11:34:10;;;;;;;3.92;2.15;;;22.90;54.10;;;;;;5196907;28;20053;-73
2022/06/01 11:37:04;;;;;;;3.17;1.75;;;22.90;55.20;;;;;;5208755;28;20055;-73
2022/06/01 11:39:46;;;;;;;10.18;2.50;;;23.00;56.80;;;;;;5117768;28;20057;-72
2022/06/01 11:42:27;;;;;;;4.07;1.85;;;23.00;53.30;;;;;;5197461;28;20055;-73
2022/06/01 11:44:59;;;;;;;3.20;1.98;;;22.90;54.00;;;;;;5179475;28;20539;-72
2022/06/01 11:47:54;;;;;;;3.00;2.10;;;22.90;54.70;;;;;;5200119;28;20048;-74
2022/06/01 11:50:33;;;;;;;5.57;2.30;;;23.00;54.40;;;;;;5198122;28;20040;-74
2022/06/01 11:53:11;;;;;;;3.42;1.90;;;23.10;54.10;;;;;;5207253;28;20047;-72
2022/06/01 11:55:47;;;;;;;5.65;2.40;;;23.20;55.00;;;;;;5181332;28;20051;-73
2022/06/01 11:58:28;;;;;;;4.07;1.90;;;23.40;53.80;;;;;;5196894;28;20692;-72
2022/06/01 12:01:14;;;;;;;4.35;2.00;;;24.10;57.20;;;;;;5196162;28;20045;-73
2022/06/01 12:03:57;;;;;;;5.00;2.00;;;24.70;50.40;;;;;;5184321;28;20053;-70
2022/06/01 12:06:51;;;;;;;3.42;2.17;;;24.80;49.50;;;;;;5200057;28;20079;-70
2022/06/01 12:09:41;;;;;;;;;;;25.00;50.90;;;;;;5201005;28;25299;-71
2022/06/01 12:12:32;;;;;;;3.47;1.85;;;25.50;49.50;;;;;;5180876;28;20785;-71
2022/06/01 12:15:32;;;;;;;2.83;1.55;;;25.70;48.40;;;;;;5208005;28;20881;-71
2022/06/01 12:18:18;;;;;;;3.55;1.83;;;25.60;47.50;;;;;;5214364;28;20040;-71
2022/06/01 12:20:54;;;;;;;3.05;2.20;;;25.60;48.70;;;;;;5229367;28;20621;-70
2022/06/01 12:29:56;;;;;;;3.45;2.00;;;26.40;48.50;;;;;;5174545;28;20484;-70
2022/06/01 12:32:30;;;;;;;3.15;2.00;;;26.40;47.00;;;;;;5222949;28;20916;-74
2022/06/01 12:35:23;;;;;;;6.38;2.00;;;26.30;46.60;;;;;;5203644;28;20040;-71
2022/06/01 12:38:07;;;;;;;2.65;2.17;;;26.00;47.70;;;;;;5229578;28;20908;-70
2022/06/01 12:41:21;;;;;;;5.40;1.80;;;26.20;48.10;;;;;;5232498;28;20053;-71
2022/06/01 12:43:57;;;;;;;3.22;2.15;;;26.10;48.80;;;;;;5165099;28;20068;-71
2022/06/01 12:46:39;;;;;;;3.78;1.98;;;26.30;47.70;;;;;;5202000;28;20587;-71
2022/06/01 12:49:34;;;;;;;3.65;1.90;;;26.40;45.80;;;;;;5198299;28;20079;-71
2022/06/01 12:52:37;;;;;;;5.82;2.22;;;26.40;48.10;;;;;;5201736;28;20574;-71
2022/06/01 12:55:21;;;;;;;10.25;1.80;;;26.00;47.60;;;;;;5210237;28;20057;-71
2022/06/01 12:57:58;;;;;;;4.13;1.80;;;25.80;48.30;;;;;;5218585;28;20126;-71
2022/06/01 13:00:33;;;;;;;4.15;1.90;;;26.00;48.90;;;;;;5220650;28;20060;-72
2022/06/01 13:03:12;;;;;;;3.13;1.83;;;25.20;46.50;;;;;;5223800;28;20048;-74
2022/06/01 13:05:49;;;;;;;6.22;2.00;;;25.20;48.00;;;;;;5218945;28;20048;-74
2022/06/01 13:08:25;;;;;;;2.00;1.70;;;25.30;48.20;;;;;;5215977;28;20054;-71
2022/06/01 13:11:26;;;;;;;5.90;1.85;;;25.20;48.20;;;;;;5215719;28;20040;-71
2022/06/01 13:18:58;;;;;;;2.53;1.90;;;24.80;48.10;;;;;;5207637;28;20064;-72
2022/06/01 13:21:36;;;;;;;3.15;2.10;;;24.70;49.60;;;;;;5212598;28;20410;-75
2022/06/01 13:24:10;;;;;;;2.80;2.17;;;24.70;50.50;;;;;;5216814;28;20056;-73
2022/06/01 13:26:50;;;;;;;4.72;1.73;;;25.00;50.10;;;;;;5200935;28;20129;-75
2022/06/01 13:29:33;;;;;;;6.57;2.10;;;25.00;49.10;;;;;;5181655;28;20041;-74
2022/06/01 13:32:10;;;;;;;3.63;2.10;;;25.00;50.10;;;;;;5208279;28;20048;-74
2022/06/01 13:34:52;;;;;;;4.97;1.90;;;25.00;49.40;;;;;;5199238;28;20555;-73
2022/06/01 13:37:29;;;;;;;3.30;2.20;;;24.80;51.00;;;;;;5194236;28;20428;-74
2022/06/01 13:40:08;;;;;;;3.17;2.00;;;24.50;50.60;;;;;;5194092;28;20644;-73
2022/06/01 13:42:58;;;;;;;2.17;1.92;;;24.50;51.00;;;;;;5212683;28;20044;-73
2022/06/01 13:45:59;;;;;;;3.70;1.77;;;24.40;50.30;;;;;;5208323;28;20047;-73
2022/06/01 13:48:44;;;;;;;3.85;2.10;;;24.10;51.70;;;;;;5189205;28;20048;-74
2022/06/01 13:51:52;;;;;;;7.38;2.10;;;24.30;51.90;;;;;;5217764;28;20494;-74
2022/06/01 13:54:33;;;;;;;3.67;2.10;;;24.40;52.60;;;;;;5189638;28;20760;-74
2022/06/01 13:57:14;;;;;;;4.30;2.38;;;24.40;51.00;;;;;;5192703;28;20044;-74
2022/06/01 14:00:04;;;;;;;4.78;1.83;;;24.70;51.80;;;;;;5213512;28;20036;-71
2022/06/01 14:02:51;;;;;;;8.00;2.45;;;24.70;50.40;;;;;;5216117;28;20522;-72
2022/06/01 14:05:41;;;;;;;3.47;2.13;;;24.70;51.90;;;;;;5217904;28;20617;-72
2022/06/01 14:08:36;;;;;;;4.25;2.20;;;24.50;51.40;;;;;;5204071;28;20492;-71
2022/06/01 14:11:13;;;;;;;3.15;2.13;;;23.90;52.50;;;;;;5194719;28;20476;-74
2022/06/01 14:13:46;;;;;;;3.10;2.75;;;23.90;52.90;;;;;;5219909;28;20049;-71
2022/06/01 14:16:21;;;;;;;3.95;2.10;;;23.80;52.70;;;;;;5189840;28;20048;-72
2022/06/01 14:18:58;;;;;;;6.75;2.10;;;23.70;53.90;;;;;;5220032;28;20055;-72
2022/06/01 14:21:30;;;;;;;4.85;2.03;;;23.70;54.50;;;;;;5190071;28;20063;-71
2022/06/01 14:24:04;;;;;;;5.85;2.45;;;23.50;54.40;;;;;;5204121;28;20085;-74
2022/06/01 14:29:41;;;;;;;4.43;2.10;;;23.20;53.80;;;;;;5206040;28;20045;-72
2022/06/01 14:32:14;;;;;;;3.85;2.13;;;23.00;54.90;;;;;;5217174;28;22381;-74